createdAt,value
2023-04-29T00:00:08.669Z,7.80
2023-04-29T00:02:17.406Z,8.68
2023-04-29T00:04:20.365Z,8.40
2023-04-29T00:06:23.625Z,9.15
2023-04-29T00:08:26.749Z,7.82
2023-04-29T00:10:30.064Z,10.65
2023-04-29T00:12:34.208Z,9.32
2023-04-29T00:14:37.378Z,10.80
2023-04-29T00:16:40.197Z,6.00
2023-04-29T00:18:42.971Z,7.68
2023-04-29T00:20:45.752Z,6.82
2023-04-29T00:22:49.445Z,8.73
2023-04-29T00:24:53.110Z,7.63
2023-04-29T00:26:55.967Z,8.57
2023-04-29T00:29:00.493Z,7.32
2023-04-29T00:31:03.401Z,8.43
2023-04-29T00:33:06.416Z,9.45
2023-04-29T00:35:10.042Z,7.10
2023-04-29T00:37:13.011Z,7.57
2023-04-29T00:39:15.835Z,6.97
2023-04-29T00:41:18.697Z,10.50
2023-04-29T00:43:21.604Z,7.53
2023-04-29T00:45:25.968Z,6.55
2023-04-29T00:47:28.773Z,9.18
2023-04-29T00:49:32.471Z,6.78
2023-04-29T00:51:36.178Z,6.97
2023-04-29T00:53:39.954Z,7.32
2023-04-29T00:56:02.572Z,8.93
2023-04-29T00:58:30.202Z,8.45
2023-04-29T01:00:34.634Z,8.25
2023-04-29T01:02:37.913Z,7.18
2023-04-29T01:04:41.057Z,6.38
2023-04-29T01:06:59.200Z,8.70
2023-04-29T01:09:13.264Z,14.63
2023-04-29T01:11:21.243Z,7.87
2023-04-29T01:13:31.375Z,7.78
2023-04-29T01:15:48.562Z,9.55
2023-04-29T01:17:57.050Z,9.27
2023-04-29T01:20:01.824Z,6.07
2023-04-29T01:22:05.902Z,8.57
2023-04-29T01:24:11.083Z,10.85
2023-04-29T01:26:14.406Z,9.38
2023-04-29T01:28:47.377Z,8.48
2023-04-29T01:31:01.903Z,9.02
2023-04-29T01:33:12.602Z,6.88
2023-04-29T01:35:28.819Z,6.85
2023-04-29T01:37:40.002Z,9.80
2023-04-29T01:39:54.093Z,8.63
2023-04-29T01:41:59.846Z,10.63
2023-04-29T01:44:08.989Z,5.60
2023-04-29T01:46:12.206Z,9.75
2023-04-29T01:48:15.692Z,7.63
2023-04-29T01:50:19.649Z,7.00
2023-04-29T01:52:23.145Z,8.80
2023-04-29T01:54:36.275Z,8.02
2023-04-29T01:56:40.818Z,8.98
2023-04-29T01:58:52.029Z,6.65
2023-04-29T02:01:14.206Z,7.28
2023-04-29T02:03:17.658Z,6.88
2023-04-29T02:05:23.816Z,7.32
2023-04-29T02:07:32.806Z,11.05
2023-04-29T02:09:35.764Z,5.55
2023-04-29T02:11:46.109Z,6.72
2023-04-29T02:13:48.976Z,6.82
2023-04-29T02:15:52.064Z,9.85
2023-04-29T02:17:55.096Z,5.15
2023-04-29T02:19:58.018Z,6.07
2023-04-29T02:22:00.956Z,6.80
2023-04-29T02:24:03.878Z,5.80
2023-04-29T02:26:06.939Z,9.30
2023-04-29T02:28:11.061Z,5.82
2023-04-29T02:30:16.430Z,5.57
2023-04-29T02:32:20.196Z,6.75
2023-04-29T02:34:24.068Z,7.17
2023-04-29T02:36:27.001Z,6.70
2023-04-29T02:38:30.027Z,7.40
2023-04-29T02:40:32.920Z,6.10
2023-04-29T02:42:35.846Z,7.60
2023-04-29T02:44:40.128Z,7.60
2023-04-29T02:46:45.401Z,7.63
2023-04-29T02:48:48.386Z,8.10
2023-04-29T02:50:52.168Z,6.97
2023-04-29T02:52:55.058Z,10.27
2023-04-29T02:55:00.657Z,6.22
2023-04-29T02:57:03.657Z,6.30
2023-04-29T02:59:06.414Z,7.97
2023-04-29T03:01:10.837Z,4.97
2023-04-29T03:03:14.628Z,3.40
2023-04-29T03:05:20.140Z,4.57
2023-04-29T03:07:23.296Z,5.65
2023-04-29T03:09:26.454Z,5.40
2023-04-29T03:11:29.266Z,8.63
2023-04-29T03:13:32.088Z,3.70
2023-04-29T03:15:34.906Z,4.45
2023-04-29T03:17:39.043Z,4.13
2023-04-29T03:19:42.619Z,3.38
2023-04-29T03:21:45.886Z,2.85
2023-04-29T03:23:49.549Z,3.05
2023-04-29T03:25:59.257Z,4.65
2023-04-29T03:28:02.146Z,6.07
2023-04-29T03:30:07.840Z,4.55
2023-04-29T03:32:12.484Z,4.95
2023-04-29T03:34:16.679Z,6.13
2023-04-29T03:36:26.072Z,2.92
2023-04-29T03:38:41.800Z,2.65
2023-04-29T03:40:45.424Z,3.28
2023-04-29T03:42:48.223Z,3.72
2023-04-29T03:44:51.820Z,3.10
2023-04-29T03:46:54.646Z,3.00
2023-04-29T03:48:59.104Z,3.58
2023-04-29T03:51:03.329Z,3.22
2023-04-29T03:53:06.737Z,2.35
2023-04-29T03:55:10.475Z,4.13
2023-04-29T03:57:13.597Z,2.15
2023-04-29T03:59:16.508Z,3.22
2023-04-29T04:01:19.373Z,1.60
2023-04-29T04:03:23.762Z,1.80
2023-04-29T04:05:26.968Z,1.65
2023-04-29T04:07:36.837Z,2.03
2023-04-29T04:10:02.724Z,2.85
2023-04-29T04:12:07.647Z,2.35
2023-04-29T04:14:10.668Z,2.30
2023-04-29T04:16:13.706Z,3.40
2023-04-29T04:18:17.272Z,1.52
2023-04-29T04:20:20.812Z,4.03
2023-04-29T04:24:46.729Z,2.92
2023-04-29T04:26:49.582Z,2.10
2023-04-29T04:28:57.645Z,7.50
2023-04-29T04:31:20.736Z,3.08
2023-04-29T04:33:23.749Z,3.90
2023-04-29T04:35:26.796Z,5.60
2023-04-29T04:37:29.601Z,3.05
2023-04-29T04:39:35.241Z,2.10
2023-04-29T04:41:39.621Z,2.50
2023-04-29T04:43:42.414Z,3.03
2023-04-29T04:45:52.913Z,1.95
2023-04-29T04:47:55.824Z,4.50
2023-04-29T04:50:04.060Z,2.13
2023-04-29T04:52:06.959Z,1.52
2023-04-29T04:54:09.868Z,1.80
2023-04-29T04:56:12.741Z,3.35
2023-04-29T04:58:17.050Z,2.78
2023-04-29T05:00:20.035Z,2.53
2023-04-29T05:02:23.140Z,2.03
2023-04-29T05:04:26.314Z,2.40
2023-04-29T05:06:29.804Z,2.03
2023-04-29T05:08:32.831Z,7.45
2023-04-29T05:12:41.879Z,1.42
2023-04-29T05:14:46.081Z,2.35
2023-04-29T05:18:52.226Z,2.40
2023-04-29T05:20:55.013Z,2.63
2023-04-29T05:22:57.958Z,2.83
2023-04-29T05:25:03.263Z,2.57
2023-04-29T05:27:07.797Z,1.55
2023-04-29T05:29:10.744Z,3.78
2023-04-29T05:31:24.298Z,4.40
2023-04-29T05:33:27.252Z,2.90
2023-04-29T05:35:31.073Z,3.50
2023-04-29T05:37:34.649Z,3.45
2023-04-29T05:39:51.838Z,2.47
2023-04-29T05:41:54.818Z,3.13
2023-04-29T05:44:07.917Z,2.85
2023-04-29T05:46:10.748Z,3.28
2023-04-29T05:48:16.329Z,3.05
2023-04-29T05:50:20.221Z,2.47
2023-04-29T05:52:23.090Z,2.92
2023-04-29T05:54:26.446Z,5.90
2023-04-29T05:56:29.330Z,4.80
2023-04-29T05:58:32.626Z,6.07
2023-04-29T06:00:35.405Z,3.65
2023-04-29T06:02:57.390Z,6.50
2023-04-29T06:05:03.089Z,5.43
2023-04-29T06:07:18.886Z,2.58
2023-04-29T06:09:30.565Z,3.35
2023-04-29T06:11:37.399Z,2.35
2023-04-29T06:13:40.138Z,5.75
2023-04-29T06:15:43.058Z,4.82
2023-04-29T06:17:46.037Z,3.45
2023-04-29T06:19:48.849Z,4.90
2023-04-29T06:21:53.033Z,2.42
2023-04-29T06:23:56.154Z,4.07
2023-04-29T06:25:58.975Z,4.93
2023-04-29T06:28:02.059Z,5.13
2023-04-29T06:30:07.250Z,5.35
2023-04-29T06:32:10.519Z,6.30
2023-04-29T06:34:13.827Z,5.43
2023-04-29T06:36:34.222Z,8.15
2023-04-29T06:39:01.660Z,7.00
2023-04-29T06:41:28.939Z,6.13
2023-04-29T06:43:43.716Z,7.40
2023-04-29T06:46:11.268Z,5.95
2023-04-29T06:48:27.529Z,4.28
2023-04-29T06:50:30.300Z,7.05
2023-04-29T06:52:33.408Z,6.75
2023-04-29T06:54:37.723Z,7.78
2023-04-29T06:56:40.512Z,8.90
2023-04-29T06:58:43.370Z,12.65
2023-04-29T07:00:47.503Z,11.05
2023-04-29T07:02:50.859Z,17.55
2023-04-29T07:04:54.254Z,13.85
2023-04-29T07:06:57.212Z,16.65
2023-04-29T07:09:00.018Z,13.98
2023-04-29T07:11:04.267Z,14.20
2023-04-29T07:13:07.108Z,14.90
2023-04-29T07:15:10.851Z,16.30
2023-04-29T07:17:14.337Z,17.57
2023-04-29T07:19:17.988Z,16.25
2023-04-29T07:21:20.941Z,18.42
2023-04-29T07:23:24.031Z,16.48
2023-04-29T07:25:27.515Z,17.17
2023-04-29T07:27:31.958Z,17.58
2023-04-29T07:29:34.754Z,14.32
2023-04-29T07:31:38.625Z,16.70
2023-04-29T07:33:41.573Z,16.17
2023-04-29T07:35:45.524Z,18.00
2023-04-29T07:37:49.152Z,17.77
2023-04-29T07:39:52.839Z,17.88
2023-04-29T07:41:55.841Z,18.13
2023-04-29T07:44:00.156Z,15.95
2023-04-29T07:46:03.078Z,17.02
2023-04-29T07:48:06.624Z,18.88
2023-04-29T07:50:10.393Z,14.83
2023-04-29T07:52:14.835Z,16.35
2023-04-29T07:54:18.512Z,16.33
2023-04-29T07:56:23.296Z,15.57
2023-04-29T07:58:26.385Z,14.48
2023-04-29T08:00:31.412Z,19.30
2023-04-29T08:02:34.410Z,14.15
2023-04-29T08:04:40.724Z,15.95
2023-04-29T08:06:46.709Z,14.45
2023-04-29T08:08:49.794Z,13.07
2023-04-29T08:10:54.586Z,12.95
2023-04-29T08:12:57.407Z,13.57
2023-04-29T08:15:00.207Z,13.75
2023-04-29T08:17:04.423Z,12.20
2023-04-29T08:19:07.212Z,13.57
2023-04-29T08:21:11.409Z,12.80
2023-04-29T08:23:16.548Z,11.43
2023-04-29T08:25:19.372Z,12.18
2023-04-29T08:27:22.389Z,12.57
2023-04-29T08:29:25.316Z,10.27
2023-04-29T08:31:28.113Z,10.27
2023-04-29T08:33:32.295Z,10.18
2023-04-29T08:35:37.433Z,11.98
2023-04-29T08:37:40.265Z,11.68
2023-04-29T08:39:43.377Z,11.50
2023-04-29T08:41:51.398Z,12.38
2023-04-29T08:43:54.204Z,10.48
2023-04-29T08:45:59.428Z,9.30
2023-04-29T08:48:04.476Z,11.50
2023-04-29T08:50:10.446Z,10.90
2023-04-29T08:52:13.309Z,11.32
2023-04-29T08:54:16.155Z,11.75
2023-04-29T08:56:21.702Z,12.55
2023-04-29T08:58:26.429Z,12.15
2023-04-29T09:02:32.717Z,11.52
2023-04-29T09:04:47.574Z,10.88
2023-04-29T09:06:52.869Z,9.98
2023-04-29T09:11:11.784Z,12.50
2023-04-29T09:13:25.255Z,12.35
2023-04-29T09:15:28.874Z,11.35
2023-04-29T09:17:46.037Z,10.68
2023-04-29T09:19:48.959Z,13.20
2023-04-29T09:21:57.045Z,11.35
2023-04-29T09:24:01.468Z,13.65
2023-04-29T09:26:04.249Z,11.98
2023-04-29T09:28:17.258Z,12.52
2023-04-29T09:30:21.092Z,12.75
2023-04-29T09:32:24.954Z,10.00
2023-04-29T09:34:32.882Z,11.10
2023-04-29T09:36:40.945Z,10.27
2023-04-29T09:38:56.415Z,11.20
2023-04-29T09:41:01.166Z,10.65
2023-04-29T09:43:13.634Z,14.35
2023-04-29T09:45:37.709Z,9.75
2023-04-29T09:47:40.579Z,9.48
2023-04-29T09:49:46.058Z,8.52
2023-04-29T09:51:54.071Z,11.15
2023-04-29T09:53:58.180Z,7.13
2023-04-29T09:56:02.650Z,6.68
2023-04-29T09:58:06.269Z,8.32
2023-04-29T10:00:10.079Z,8.00
2023-04-29T10:02:18.034Z,6.93
2023-04-29T10:04:22.430Z,9.02
2023-04-29T10:06:26.661Z,5.60
2023-04-29T10:08:30.936Z,8.70
2023-04-29T10:10:35.322Z,7.90
2023-04-29T10:12:39.644Z,8.00
2023-04-29T10:14:46.914Z,8.60
2023-04-29T10:16:51.238Z,7.03
2023-04-29T10:18:56.395Z,7.95
2023-04-29T10:21:02.929Z,8.52
2023-04-29T10:23:06.589Z,8.02
2023-04-29T10:25:11.600Z,8.05
2023-04-29T10:27:17.363Z,8.10
2023-04-29T10:29:23.540Z,7.70
2023-04-29T10:31:27.641Z,7.82
2023-04-29T10:33:32.618Z,9.75
2023-04-29T10:35:35.764Z,10.00
2023-04-29T10:37:38.766Z,8.82
2023-04-29T10:39:53.381Z,9.88
2023-04-29T10:41:57.339Z,10.13
2023-04-29T10:44:03.609Z,9.23
2023-04-29T10:46:20.629Z,8.57
2023-04-29T10:48:25.486Z,8.60
2023-04-29T10:50:29.341Z,8.40
2023-04-29T10:52:32.304Z,8.02
2023-04-29T10:54:35.129Z,6.20
2023-04-29T10:56:45.406Z,7.30
2023-04-29T10:58:48.252Z,7.78
2023-04-29T11:00:54.896Z,6.22
2023-04-29T11:02:58.183Z,7.45
2023-04-29T11:05:12.268Z,9.68
2023-04-29T11:07:28.487Z,9.02
2023-04-29T11:09:33.999Z,9.02
2023-04-29T11:11:47.360Z,8.95
2023-04-29T11:13:50.300Z,11.70
2023-04-29T11:15:53.580Z,8.43
2023-04-29T11:18:01.697Z,8.25
2023-04-29T11:20:05.617Z,9.32
2023-04-29T11:22:25.350Z,8.88
2023-04-29T11:24:28.605Z,8.02
2023-04-29T11:26:31.472Z,8.77
2023-04-29T11:28:34.925Z,8.77
2023-04-29T11:30:38.120Z,9.18
2023-04-29T11:32:42.846Z,7.55
2023-04-29T11:34:47.200Z,8.73
2023-04-29T11:36:50.100Z,7.97
2023-04-29T11:38:52.914Z,8.00
2023-04-29T11:40:56.611Z,7.60
2023-04-29T11:42:59.449Z,11.67
2023-04-29T11:45:02.292Z,7.10
2023-04-29T11:47:05.779Z,8.38
2023-04-29T11:49:08.640Z,7.20
2023-04-29T11:51:12.905Z,6.15
2023-04-29T11:53:15.889Z,8.27
2023-04-29T11:55:19.986Z,8.90
2023-04-29T11:57:22.834Z,9.50
2023-04-29T11:59:25.773Z,5.53
2023-04-29T12:01:28.676Z,7.90
2023-04-29T12:03:33.619Z,21.85
2023-04-29T12:05:36.607Z,6.13
2023-04-29T12:07:41.293Z,8.73
2023-04-29T12:11:47.952Z,7.38
2023-04-29T12:13:50.854Z,7.47
2023-04-29T12:15:54.347Z,5.05
2023-04-29T12:17:57.362Z,7.40
2023-04-29T12:20:00.481Z,3.88
2023-04-29T12:22:06.740Z,5.30
2023-04-29T12:24:14.159Z,6.10
2023-04-29T12:26:18.023Z,6.70
2023-04-29T12:28:21.593Z,4.28
2023-04-29T12:30:24.386Z,4.45
2023-04-29T12:32:27.288Z,5.03
2023-04-29T12:34:31.792Z,5.80
2023-04-29T12:36:36.691Z,6.25
2023-04-29T12:38:39.560Z,5.43
2023-04-29T12:40:45.576Z,9.95
2023-04-29T12:42:48.349Z,8.30
2023-04-29T12:44:51.240Z,7.32
2023-04-29T12:46:56.918Z,8.65
2023-04-29T12:49:03.949Z,6.18
2023-04-29T12:51:06.985Z,6.05
2023-04-29T12:53:11.575Z,4.28
2023-04-29T12:55:14.363Z,6.50
2023-04-29T12:57:18.668Z,5.25
2023-04-29T12:59:21.552Z,5.60
2023-04-29T13:01:24.416Z,7.25
2023-04-29T13:03:27.471Z,5.45
2023-04-29T13:05:30.483Z,5.07
2023-04-29T13:07:33.476Z,6.47
2023-04-29T13:09:38.050Z,4.95
2023-04-29T13:13:45.476Z,8.57
2023-04-29T13:15:48.315Z,8.45
2023-04-29T13:17:51.660Z,9.57
2023-04-29T13:19:54.530Z,7.30
2023-04-29T13:21:57.307Z,7.95
2023-04-29T13:24:00.165Z,6.30
2023-04-29T13:26:03.019Z,5.68
2023-04-29T13:28:07.329Z,5.93
2023-04-29T13:30:12.218Z,4.63
2023-04-29T13:32:16.353Z,6.93
2023-04-29T13:34:21.493Z,8.27
2023-04-29T13:36:24.351Z,6.05
2023-04-29T13:38:27.152Z,9.20
2023-04-29T13:40:30.840Z,6.47
2023-04-29T13:42:39.123Z,5.85
2023-04-29T13:44:53.072Z,5.97
2023-04-29T13:46:57.685Z,7.10
2023-04-29T13:58:30.341Z,4.93
2023-04-29T13:59:53.144Z,5.57
2023-04-29T14:04:03.765Z,4.75
2023-04-29T14:06:07.227Z,7.32
2023-04-29T14:08:10.049Z,5.32
2023-04-29T14:10:12.834Z,6.93
2023-04-29T14:12:15.704Z,5.68
2023-04-29T14:14:18.576Z,6.25
2023-04-29T14:16:21.846Z,6.47
2023-04-29T14:18:27.321Z,5.75
2023-04-29T14:20:30.111Z,5.55
2023-04-29T14:22:32.932Z,6.25
2023-04-29T14:24:35.742Z,7.60
2023-04-29T14:26:38.552Z,7.45
2023-04-29T14:28:41.356Z,5.53
2023-04-29T14:30:46.722Z,6.25
2023-04-29T14:32:49.793Z,6.70
2023-04-29T14:34:54.181Z,7.30
2023-04-29T14:39:03.881Z,8.40
2023-04-29T14:41:07.060Z,8.13
2023-04-29T14:43:09.826Z,6.45
2023-04-29T14:45:13.143Z,6.25
2023-04-29T14:47:15.883Z,7.88
2023-04-29T14:49:18.781Z,5.40
2023-04-29T14:51:22.892Z,5.35
2023-04-29T14:53:25.743Z,6.22
2023-04-29T14:55:30.178Z,6.07
2023-04-29T14:57:34.596Z,5.72
2023-04-29T14:59:37.421Z,7.72
2023-04-29T15:01:40.412Z,5.90
2023-04-29T15:03:44.774Z,5.22
2023-04-29T15:05:48.055Z,4.78
2023-04-29T15:07:52.522Z,5.40
2023-04-29T15:09:55.356Z,4.72
2023-04-29T15:11:58.210Z,4.85
2023-04-29T15:14:01.056Z,4.72
2023-04-29T15:16:04.287Z,5.28
2023-04-29T15:18:08.730Z,6.03
2023-04-29T15:22:15.267Z,5.88
2023-04-29T15:24:19.930Z,6.93
2023-04-29T15:26:22.980Z,7.00
2023-04-29T15:28:25.943Z,6.25
2023-04-29T15:30:29.034Z,6.75
2023-04-29T15:32:32.533Z,7.55
2023-04-29T15:34:35.383Z,5.25
2023-04-29T15:36:38.142Z,6.43
2023-04-29T15:38:41.466Z,8.10
2023-04-29T15:40:46.164Z,7.97
2023-04-29T15:44:51.677Z,8.57
2023-04-29T15:46:55.341Z,10.90
2023-04-29T15:48:58.213Z,8.30
2023-04-29T15:51:00.979Z,10.75
2023-04-29T15:53:04.907Z,8.55
2023-04-29T15:55:08.417Z,6.85
2023-04-29T15:57:12.622Z,8.98
2023-04-29T15:59:15.877Z,7.55
2023-04-29T16:01:18.713Z,8.02
2023-04-29T16:03:21.552Z,7.18
2023-04-29T16:05:24.351Z,5.03
2023-04-29T16:07:27.113Z,7.53
2023-04-29T16:09:29.913Z,6.90
2023-04-29T16:11:32.814Z,8.20
2023-04-29T16:13:37.010Z,6.35
2023-04-29T16:15:39.997Z,7.55
2023-04-29T16:17:42.937Z,5.18
2023-04-29T16:19:45.778Z,5.95
2023-04-29T16:21:48.612Z,8.45
2023-04-29T16:23:52.148Z,7.10
2023-04-29T16:25:55.494Z,5.88
2023-04-29T16:27:58.291Z,7.03
2023-04-29T16:30:02.610Z,6.13
2023-04-29T16:32:06.241Z,5.97
2023-04-29T16:34:09.064Z,6.43
2023-04-29T16:36:12.064Z,7.82
2023-04-29T16:38:14.892Z,8.60
2023-04-29T16:40:17.803Z,7.75
2023-04-29T16:42:20.593Z,7.30
2023-04-29T16:44:23.347Z,7.85
2023-04-29T16:46:27.860Z,6.18
2023-04-29T16:50:36.245Z,7.43
2023-04-29T16:52:39.045Z,6.05
2023-04-29T16:54:42.148Z,7.13
2023-04-29T16:56:44.971Z,6.82
2023-04-29T16:58:47.855Z,6.75
2023-04-29T17:00:50.785Z,6.43
2023-04-29T17:02:58.280Z,7.88
2023-04-29T17:05:01.172Z,7.45
2023-04-29T17:07:03.991Z,7.03
2023-04-29T17:09:07.064Z,7.63
2023-04-29T17:11:10.291Z,7.22
2023-04-29T17:13:13.072Z,7.82
2023-04-29T17:15:16.455Z,6.93
2023-04-29T17:17:19.471Z,8.30
2023-04-29T17:19:23.619Z,11.63
2023-04-29T17:21:26.590Z,8.85
2023-04-29T17:23:30.525Z,7.97
2023-04-29T17:25:33.815Z,7.90
2023-04-29T17:27:36.867Z,8.57
2023-04-29T17:29:41.435Z,9.25
2023-04-29T17:31:54.491Z,10.27
2023-04-29T17:34:05.526Z,9.80
2023-04-29T17:36:09.863Z,9.93
2023-04-29T17:38:13.102Z,11.75
2023-04-29T17:40:15.915Z,10.23
2023-04-29T17:42:18.719Z,11.32
2023-04-29T17:44:23.384Z,11.38
2023-04-29T17:46:26.754Z,10.23
2023-04-29T17:48:29.509Z,11.80
2023-04-29T17:50:32.523Z,16.13
2023-04-29T17:52:36.901Z,13.10
2023-04-29T17:54:40.469Z,12.35
2023-04-29T17:56:43.449Z,16.55
2023-04-29T17:58:46.282Z,15.98
2023-04-29T18:00:49.191Z,14.20
2023-04-29T18:02:52.172Z,21.98
2023-04-29T18:04:55.799Z,15.82
2023-04-29T18:06:58.617Z,16.35
2023-04-29T18:09:02.789Z,18.75
2023-04-29T18:11:06.019Z,17.45
2023-04-29T18:13:08.839Z,16.55
2023-04-29T18:15:14.148Z,15.98
2023-04-29T18:17:16.996Z,15.95
2023-04-29T18:19:19.798Z,14.30
2023-04-29T18:21:23.635Z,14.63
2023-04-29T18:23:26.575Z,15.68
2023-04-29T18:25:30.882Z,17.33
2023-04-29T18:27:33.738Z,14.65
2023-04-29T18:29:36.571Z,17.63
2023-04-29T18:31:39.435Z,20.48
2023-04-29T18:33:42.384Z,15.05
2023-04-29T18:35:45.254Z,13.25
2023-04-29T18:37:48.103Z,13.55
2023-04-29T18:39:50.906Z,15.25
2023-04-29T18:41:55.105Z,12.10
2023-04-29T18:43:57.943Z,11.70
2023-04-29T18:46:01.464Z,8.75
2023-04-29T18:48:06.768Z,8.98
2023-04-29T18:50:09.873Z,8.57
2023-04-29T18:52:12.680Z,7.75
2023-04-29T18:54:16.847Z,7.82
2023-04-29T18:56:19.687Z,7.95
2023-04-29T18:58:25.977Z,7.30
2023-04-29T19:00:29.528Z,7.60
2023-04-29T19:02:32.500Z,6.25
2023-04-29T19:04:36.057Z,6.35
2023-04-29T19:06:38.984Z,6.82
2023-04-29T19:08:41.954Z,4.60
2023-04-29T19:10:45.367Z,5.35
2023-04-29T19:12:48.314Z,4.57
2023-04-29T19:14:52.508Z,5.50
2023-04-29T19:16:55.841Z,4.80
2023-04-29T19:18:58.653Z,4.97
2023-04-29T19:21:03.053Z,5.90
2023-04-29T19:23:05.873Z,5.50
2023-04-29T19:25:10.074Z,5.47
2023-04-29T19:27:12.968Z,6.78
2023-04-29T19:29:15.865Z,8.07
2023-04-29T19:31:20.046Z,5.80
2023-04-29T19:33:22.971Z,5.93
2023-04-29T19:35:25.900Z,8.93
2023-04-29T19:37:28.824Z,7.57
2023-04-29T19:39:31.854Z,7.07
2023-04-29T19:41:35.195Z,8.50
2023-04-29T19:43:38.162Z,5.97
2023-04-29T19:45:41.188Z,6.93
2023-04-29T19:47:48.396Z,7.43
2023-04-29T19:49:51.761Z,8.43
2023-04-29T19:51:54.798Z,8.13
2023-04-29T19:54:00.033Z,7.60
2023-04-29T19:56:02.892Z,8.15
2023-04-29T20:00:13.428Z,7.00
2023-04-29T20:02:16.406Z,10.70
2023-04-29T20:04:21.013Z,9.32
2023-04-29T20:06:24.140Z,9.63
2023-04-29T20:08:27.322Z,10.45
2023-04-29T20:10:30.362Z,9.25
2023-04-29T20:12:35.281Z,11.27
2023-04-29T20:14:38.121Z,10.38
2023-04-29T20:16:41.037Z,8.52
2023-04-29T20:18:44.039Z,11.85
2023-04-29T20:20:48.292Z,10.00
2023-04-29T20:22:51.112Z,8.52
2023-04-29T20:24:53.973Z,9.27
2023-04-29T20:26:56.892Z,10.77
2023-04-29T20:28:59.795Z,10.73
2023-04-29T20:31:02.613Z,12.05
2023-04-29T20:33:07.120Z,10.15
2023-04-29T20:35:12.108Z,9.80
2023-04-29T20:37:16.300Z,11.15
2023-04-29T20:39:19.360Z,10.07
2023-04-29T20:41:22.271Z,12.50
2023-04-29T20:43:25.155Z,10.30
2023-04-29T20:45:28.063Z,10.05
2023-04-29T20:47:30.864Z,12.63
2023-04-29T20:49:33.948Z,10.80
2023-04-29T20:51:36.709Z,11.43
2023-04-29T20:53:40.903Z,10.00
2023-04-29T20:55:43.795Z,12.52
2023-04-29T20:57:46.691Z,11.27
2023-04-29T20:59:49.598Z,11.75
2023-04-29T21:01:52.526Z,13.30
2023-04-29T21:03:55.686Z,11.00
2023-04-29T21:05:58.572Z,10.90
2023-04-29T21:08:01.370Z,9.90
2023-04-29T21:10:06.498Z,11.85
2023-04-29T21:12:09.383Z,15.60
2023-04-29T21:14:13.022Z,10.52
2023-04-29T21:16:15.937Z,11.07
2023-04-29T21:18:18.975Z,11.55
2023-04-29T21:20:22.320Z,10.13
2023-04-29T21:22:25.496Z,10.88
2023-04-29T21:24:28.668Z,10.18
2023-04-29T21:26:32.790Z,12.40
2023-04-29T21:28:35.740Z,13.13
2023-04-29T21:30:38.584Z,16.05
2023-04-29T21:32:41.400Z,11.88
2023-04-29T21:34:44.261Z,12.98
2023-04-29T21:36:47.114Z,14.43
2023-04-29T21:38:50.574Z,11.23
2023-04-29T21:40:53.344Z,12.32
2023-04-29T21:42:58.653Z,12.18
2023-04-29T21:45:02.553Z,10.63
2023-04-29T21:47:05.465Z,11.00
2023-04-29T21:49:08.519Z,11.63
2023-04-29T21:51:11.316Z,14.88
2023-04-29T21:53:16.396Z,11.88
2023-04-29T21:55:21.300Z,13.63
2023-04-29T21:57:35.523Z,12.20
2023-04-29T21:59:48.970Z,13.13
2023-04-29T22:01:59.988Z,14.07
2023-04-29T22:04:03.458Z,10.57
2023-04-29T22:06:06.353Z,12.07
2023-04-29T22:08:09.192Z,11.10
2023-04-29T22:10:11.979Z,12.45
2023-04-29T22:12:14.728Z,11.63
2023-04-29T22:14:17.517Z,13.77
2023-04-29T22:16:23.394Z,12.88
2023-04-29T22:18:26.428Z,11.45
2023-04-29T22:20:29.214Z,13.07
2023-04-29T22:22:32.182Z,13.15
2023-04-29T22:24:34.994Z,12.60
2023-04-29T22:26:37.914Z,14.88
2023-04-29T22:28:40.750Z,14.07
2023-04-29T22:30:43.796Z,15.90
2023-04-29T22:32:48.027Z,12.98
2023-04-29T22:34:50.988Z,11.15
2023-04-29T22:36:54.011Z,11.27
2023-04-29T22:38:56.856Z,12.27
2023-04-29T22:40:59.644Z,11.68
2023-04-29T22:43:02.438Z,11.18
2023-04-29T22:45:06.104Z,13.63
2023-04-29T22:47:08.884Z,12.00
2023-04-29T22:49:13.411Z,13.70
2023-04-29T22:51:16.168Z,12.80
2023-04-29T22:53:19.168Z,14.13
2023-04-29T22:55:22.116Z,13.02
2023-04-29T22:57:24.945Z,13.40
2023-04-29T22:59:27.753Z,12.50
2023-04-29T23:01:30.647Z,12.73
2023-04-29T23:03:33.490Z,12.73
2023-04-29T23:05:37.597Z,12.00
2023-04-29T23:07:41.100Z,11.73
2023-04-29T23:09:43.890Z,14.40
2023-04-29T23:11:46.817Z,10.25
2023-04-29T23:13:49.670Z,11.32
2023-04-29T23:15:53.129Z,13.63
2023-04-29T23:17:57.383Z,10.40
2023-04-29T23:20:00.228Z,16.13
2023-04-29T23:22:07.240Z,14.57
2023-04-29T23:24:10.052Z,14.90
2023-04-29T23:26:12.882Z,13.07
2023-04-29T23:28:16.254Z,16.25
2023-04-29T23:30:19.251Z,16.40
2023-04-29T23:32:22.371Z,14.45
2023-04-29T23:34:25.167Z,16.17
2023-04-29T23:36:28.285Z,12.90
2023-04-29T23:38:32.569Z,15.43
2023-04-29T23:40:35.362Z,11.70
2023-04-29T23:42:38.180Z,16.35
2023-04-29T23:44:40.937Z,13.02
2023-04-29T23:46:43.934Z,15.93
2023-04-29T23:48:46.843Z,12.10
2023-04-29T23:50:49.635Z,11.65
2023-04-29T23:52:52.482Z,13.60
2023-04-29T23:54:56.661Z,13.75
2023-04-29T23:56:59.442Z,14.35
2023-04-29T23:59:02.223Z,12.18
